createdAt,value
2019-04-04T00:00:32.925Z,990.78
2019-04-04T00:01:32.889Z,990.83
2019-04-04T00:02:32.863Z,990.86
2019-04-04T00:03:32.846Z,990.84
2019-04-04T00:04:32.832Z,990.88
2019-04-04T00:05:32.788Z,990.83
2019-04-04T00:06:42.784Z,990.84
2019-04-04T00:07:32.740Z,990.83
2019-04-04T00:08:32.710Z,990.83
2019-04-04T00:09:33.149Z,990.88
2019-04-04T00:10:32.923Z,990.93
2019-04-04T00:11:32.615Z,990.92
2019-04-04T00:12:32.581Z,990.92
2019-04-04T00:13:32.572Z,990.91
2019-04-04T00:14:32.523Z,990.90
2019-04-04T00:15:32.500Z,990.88
2019-04-04T00:16:32.471Z,990.93
2019-04-04T00:17:42.458Z,990.87
2019-04-04T00:18:32.415Z,990.86
2019-04-04T00:19:32.393Z,990.86
2019-04-04T00:20:32.427Z,990.83
2019-04-04T00:21:33.947Z,990.78
2019-04-04T00:22:35.179Z,990.79
2019-04-04T00:23:32.287Z,990.71
2019-04-04T00:24:32.261Z,990.67
2019-04-04T00:25:32.259Z,990.71
2019-04-04T00:26:32.215Z,990.78
2019-04-04T00:27:32.188Z,990.84
2019-04-04T00:28:42.181Z,990.76
2019-04-04T00:29:32.127Z,990.72
2019-04-04T00:30:32.115Z,990.69
2019-04-04T00:31:32.074Z,990.68
2019-04-04T00:32:32.065Z,990.66
2019-04-04T00:33:32.025Z,990.69
2019-04-04T00:34:32.001Z,990.69
2019-04-04T00:35:31.998Z,990.81
2019-04-04T00:36:33.899Z,990.80
2019-04-04T00:37:31.938Z,990.78
2019-04-04T00:38:31.903Z,990.79
2019-04-04T00:39:41.917Z,990.74
2019-04-04T00:40:31.895Z,990.73
2019-04-04T00:41:31.863Z,990.74
2019-04-04T00:42:31.806Z,990.82
2019-04-04T00:43:31.866Z,990.79
2019-04-04T00:44:31.756Z,990.78
2019-04-04T00:45:31.754Z,990.87
2019-04-04T00:46:31.709Z,990.83
2019-04-04T00:47:32.665Z,990.80
2019-04-04T00:48:32.177Z,990.85
2019-04-04T00:49:31.623Z,990.75
2019-04-04T00:50:31.610Z,990.62
2019-04-04T00:51:31.571Z,990.57
2019-04-04T00:52:41.583Z,990.47
2019-04-04T00:53:31.538Z,990.50
2019-04-04T00:54:31.499Z,990.53
2019-04-04T00:55:31.497Z,990.53
2019-04-04T00:56:31.462Z,990.58
2019-04-04T00:57:31.417Z,990.61
2019-04-04T00:58:31.394Z,990.52
2019-04-04T00:59:31.365Z,990.50
2019-04-04T01:00:31.334Z,990.52
2019-04-04T01:01:31.312Z,990.47
2019-04-04T01:02:31.294Z,990.39
2019-04-04T01:03:41.277Z,990.31
2019-04-04T01:04:31.849Z,990.26
2019-04-04T01:05:32.134Z,990.27
2019-04-04T01:06:33.489Z,990.24
2019-04-04T01:07:31.176Z,990.26
2019-04-04T01:08:31.151Z,990.27
2019-04-04T01:09:31.137Z,990.23
2019-04-04T01:10:31.081Z,990.24
2019-04-04T01:11:31.080Z,990.16
2019-04-04T01:12:31.039Z,990.18
2019-04-04T01:13:31.006Z,990.14
2019-04-04T01:14:41.003Z,990.15
2019-04-04T01:15:31.806Z,990.10
2019-04-04T01:16:33.374Z,990.06
2019-04-04T01:17:30.925Z,990.00
2019-04-04T01:18:30.895Z,990.08
2019-04-04T01:19:30.890Z,990.06
2019-04-04T01:20:30.864Z,990.03
2019-04-04T01:21:30.861Z,990.02
2019-04-04T01:22:30.810Z,989.98
2019-04-04T01:23:30.785Z,989.92
2019-04-04T01:24:30.762Z,989.92
2019-04-04T01:25:32.596Z,989.97
2019-04-04T01:26:30.737Z,989.89
2019-04-04T01:27:40.707Z,989.88
2019-04-04T01:28:30.648Z,989.84
2019-04-04T01:29:30.645Z,989.74
2019-04-04T01:30:30.601Z,989.77
2019-04-04T01:31:30.596Z,989.71
2019-04-04T01:32:30.561Z,989.79
2019-04-04T01:33:30.547Z,989.82
2019-04-04T01:34:30.513Z,989.81
2019-04-04T01:35:30.495Z,989.83
2019-04-04T01:36:30.471Z,989.72
2019-04-04T01:37:30.468Z,989.72
2019-04-04T01:38:40.545Z,989.59
2019-04-04T01:39:31.386Z,989.66
2019-04-04T01:40:32.962Z,989.59
2019-04-04T01:41:30.370Z,989.59
2019-04-04T01:42:30.351Z,989.60
2019-04-04T01:43:30.333Z,989.50
2019-04-04T01:44:30.334Z,989.50
2019-04-04T01:45:30.303Z,989.50
2019-04-04T01:46:30.295Z,989.54
2019-04-04T01:47:30.294Z,989.59
2019-04-04T01:48:30.255Z,989.57
2019-04-04T01:49:30.265Z,989.72
2019-04-04T01:50:30.220Z,989.75
2019-04-04T01:51:40.257Z,989.80
2019-04-04T01:52:30.206Z,989.84
2019-04-04T01:53:30.834Z,989.93
2019-04-04T01:54:32.155Z,989.92
2019-04-04T01:55:30.142Z,989.90
2019-04-04T01:56:30.115Z,989.89
2019-04-04T01:57:30.115Z,989.88
2019-04-04T01:58:30.076Z,989.89
2019-04-04T01:59:30.060Z,989.94
2019-04-04T02:00:30.039Z,989.85
2019-04-04T02:01:30.019Z,989.84
2019-04-04T02:02:30.029Z,989.85
2019-04-04T02:03:30.000Z,989.93
2019-04-04T02:04:39.990Z,989.97
2019-04-04T02:05:29.980Z,990.01
2019-04-04T02:06:29.950Z,989.95
2019-04-04T02:07:30.497Z,989.90
2019-04-04T02:08:31.333Z,989.87
2019-04-04T02:09:29.869Z,989.90
2019-04-04T02:10:29.860Z,989.85
2019-04-04T02:11:29.839Z,989.95
2019-04-04T02:12:29.826Z,989.82
2019-04-04T02:13:29.803Z,989.77
2019-04-04T02:14:29.776Z,989.57
2019-04-04T02:15:29.750Z,989.48
2019-04-04T02:16:29.731Z,989.43
2019-04-04T02:17:39.745Z,989.46
2019-04-04T02:18:29.716Z,989.46
2019-04-04T02:19:29.702Z,989.39
2019-04-04T02:20:29.646Z,989.41
2019-04-04T02:21:29.617Z,989.34
2019-04-04T02:22:31.052Z,989.27
2019-04-04T02:23:31.484Z,989.23
2019-04-04T02:24:29.760Z,989.26
2019-04-04T02:25:29.538Z,989.34
2019-04-04T02:26:29.532Z,989.36
2019-04-04T02:27:29.504Z,989.43
2019-04-04T02:28:29.497Z,989.38
2019-04-04T02:29:29.459Z,989.40
2019-04-04T02:30:39.463Z,989.43
2019-04-04T02:31:29.448Z,989.34
2019-04-04T02:32:29.437Z,989.35
2019-04-04T02:33:32.033Z,989.37
2019-04-04T02:34:29.379Z,989.36
2019-04-04T02:35:29.425Z,989.39
2019-04-04T02:36:29.328Z,989.29
2019-04-04T02:37:29.305Z,989.27
2019-04-04T02:38:29.305Z,989.29
2019-04-04T02:39:29.281Z,989.29
2019-04-04T02:40:29.248Z,989.28
2019-04-04T02:41:29.250Z,989.23
2019-04-04T02:42:29.210Z,989.27
2019-04-04T02:43:39.228Z,989.28
2019-04-04T02:44:31.724Z,989.38
2019-04-04T02:45:29.153Z,989.42
2019-04-04T02:46:29.138Z,989.44
2019-04-04T02:47:29.123Z,989.35
2019-04-04T02:48:29.115Z,989.31
2019-04-04T02:49:29.542Z,989.25
2019-04-04T02:50:29.086Z,989.23
2019-04-04T02:51:29.041Z,989.17
2019-04-04T02:52:29.021Z,989.15
2019-04-04T02:53:29.015Z,989.21
2019-04-04T02:54:39.013Z,989.24
2019-04-04T02:55:31.034Z,989.17
2019-04-04T02:56:28.978Z,989.15
2019-04-04T02:57:28.956Z,989.14
2019-04-04T02:58:28.927Z,989.18
2019-04-04T02:59:28.895Z,989.23
2019-04-04T03:00:28.872Z,989.11
2019-04-04T03:01:31.756Z,989.12
2019-04-04T03:02:28.833Z,989.16
2019-04-04T03:03:28.801Z,989.16
2019-04-04T03:04:28.781Z,989.18
2019-04-04T03:05:28.770Z,989.18
2019-04-04T03:06:28.727Z,989.22
2019-04-04T03:07:38.735Z,989.13
2019-04-04T03:08:28.705Z,989.20
2019-04-04T03:09:28.690Z,989.06
2019-04-04T03:10:28.634Z,989.05
2019-04-04T03:11:28.615Z,989.11
2019-04-04T03:12:28.598Z,989.14
2019-04-04T03:13:31.039Z,989.20
2019-04-04T03:14:28.594Z,989.17
2019-04-04T03:15:28.552Z,989.20
2019-04-04T03:16:28.528Z,989.13
2019-04-04T03:17:31.613Z,989.10
2019-04-04T03:18:28.503Z,989.09
2019-04-04T03:19:28.502Z,989.15
2019-04-04T03:20:38.478Z,989.08
2019-04-04T03:21:28.458Z,989.05
2019-04-04T03:22:28.468Z,989.01
2019-04-04T03:23:32.785Z,989.01
2019-04-04T03:24:29.397Z,989.01
2019-04-04T03:25:28.389Z,988.96
2019-04-04T03:26:28.352Z,988.87
2019-04-04T03:27:28.328Z,988.89
2019-04-04T03:28:31.453Z,988.88
2019-04-04T03:29:28.294Z,988.79
2019-04-04T03:30:28.290Z,988.78
2019-04-04T03:31:36.179Z,988.69
2019-04-04T03:32:29.237Z,988.59
2019-04-04T03:33:38.256Z,988.47
2019-04-04T03:34:28.270Z,988.30
2019-04-04T03:35:29.163Z,988.22
2019-04-04T03:36:28.172Z,988.18
2019-04-04T03:37:28.169Z,988.21
2019-04-04T03:38:28.126Z,988.04
2019-04-04T03:39:28.134Z,988.06
2019-04-04T03:40:28.090Z,988.04
2019-04-04T03:41:30.685Z,988.08
2019-04-04T03:42:29.052Z,988.17
2019-04-04T03:43:28.025Z,988.28
2019-04-04T03:44:28.023Z,988.29
2019-04-04T03:45:28.010Z,988.31
2019-04-04T03:46:38.981Z,988.35
2019-04-04T03:47:27.963Z,988.35
2019-04-04T03:48:27.941Z,988.37
2019-04-04T03:49:27.895Z,988.39
2019-04-04T03:50:30.274Z,988.45
2019-04-04T03:51:27.865Z,988.59
2019-04-04T03:52:27.841Z,988.56
2019-04-04T03:53:27.824Z,988.61
2019-04-04T03:54:27.804Z,988.49
2019-04-04T03:55:28.620Z,988.46
2019-04-04T03:56:27.741Z,988.46
2019-04-04T03:57:27.731Z,988.34
2019-04-04T03:58:28.157Z,988.22
2019-04-04T03:59:37.715Z,988.18
2019-04-04T04:00:27.891Z,988.23
2019-04-04T04:01:27.652Z,988.16
2019-04-04T04:02:27.612Z,988.10
2019-04-04T04:03:27.590Z,988.01
2019-04-04T04:04:28.460Z,988.06
2019-04-04T04:05:27.618Z,988.02
2019-04-04T04:06:27.524Z,988.05
2019-04-04T04:07:27.506Z,988.00
2019-04-04T04:08:27.483Z,988.08
2019-04-04T04:09:27.475Z,988.03
2019-04-04T04:10:32.178Z,988.06
2019-04-04T04:11:28.417Z,988.07
2019-04-04T04:12:37.416Z,988.10
2019-04-04T04:13:27.409Z,988.15
2019-04-04T04:14:27.379Z,988.17
2019-04-04T04:15:30.395Z,988.18
2019-04-04T04:16:27.401Z,988.19
2019-04-04T04:17:27.318Z,988.22
2019-04-04T04:18:27.299Z,988.25
2019-04-04T04:19:30.121Z,988.23
2019-04-04T04:20:27.252Z,988.30
2019-04-04T04:21:27.231Z,988.26
2019-04-04T04:22:27.210Z,988.31
2019-04-04T04:23:27.177Z,988.31
2019-04-04T04:24:29.641Z,988.35
2019-04-04T04:25:37.140Z,988.36
2019-04-04T04:26:27.199Z,988.45
2019-04-04T04:27:27.125Z,988.48
2019-04-04T04:28:27.130Z,988.52
2019-04-04T04:29:29.835Z,988.44
2019-04-04T04:30:27.024Z,988.45
2019-04-04T04:31:26.994Z,988.52
2019-04-04T04:32:26.961Z,988.46
2019-04-04T04:33:29.390Z,988.45
2019-04-04T04:34:26.914Z,988.44
2019-04-04T04:35:26.915Z,988.37
2019-04-04T04:36:27.380Z,988.38
2019-04-04T04:37:26.841Z,988.28
2019-04-04T04:38:36.830Z,988.24
2019-04-04T04:39:26.812Z,988.27
2019-04-04T04:40:26.782Z,988.28
2019-04-04T04:41:26.754Z,988.25
2019-04-04T04:42:27.507Z,988.24
2019-04-04T04:43:26.684Z,988.16
2019-04-04T04:44:26.672Z,988.11
2019-04-04T04:45:26.623Z,988.12
2019-04-04T04:46:26.615Z,988.10
2019-04-04T04:47:26.578Z,988.15
2019-04-04T04:48:30.704Z,988.10
2019-04-04T04:49:27.513Z,988.10
2019-04-04T04:50:26.487Z,988.04
2019-04-04T04:51:36.487Z,988.14
2019-04-04T04:52:26.457Z,988.15
2019-04-04T04:53:26.435Z,988.17
2019-04-04T04:54:26.382Z,988.13
2019-04-04T04:55:27.163Z,988.21
2019-04-04T04:56:26.343Z,988.20
2019-04-04T04:57:30.018Z,988.18
2019-04-04T04:58:26.288Z,988.17
2019-04-04T04:59:26.261Z,988.14
2019-04-04T05:00:27.900Z,988.10
2019-04-04T05:01:26.257Z,988.16
2019-04-04T05:02:26.190Z,988.26
2019-04-04T05:03:26.160Z,988.25
2019-04-04T05:04:36.160Z,988.31
2019-04-04T05:05:26.139Z,988.27
2019-04-04T05:06:26.124Z,988.24
2019-04-04T05:07:26.074Z,988.18
2019-04-04T05:08:26.052Z,988.20
2019-04-04T05:09:26.028Z,988.22
2019-04-04T05:10:25.999Z,988.21
2019-04-04T05:11:25.986Z,988.22
2019-04-04T05:12:25.948Z,988.15
2019-04-04T05:13:28.658Z,988.10
2019-04-04T05:14:25.907Z,988.12
2019-04-04T05:15:25.878Z,988.11
2019-04-04T05:16:25.869Z,988.10
2019-04-04T05:17:35.843Z,988.09
2019-04-04T05:18:25.796Z,988.09
2019-04-04T05:19:25.760Z,988.11
2019-04-04T05:20:29.608Z,988.05
2019-04-04T05:21:28.728Z,987.96
2019-04-04T05:22:25.684Z,987.95
2019-04-04T05:23:25.652Z,987.99
2019-04-04T05:24:25.676Z,988.08
2019-04-04T05:25:25.599Z,988.02
2019-04-04T05:26:25.566Z,987.99
2019-04-04T05:27:25.534Z,988.00
2019-04-04T05:28:35.536Z,987.99
2019-04-04T05:29:25.487Z,988.04
2019-04-04T05:30:25.458Z,988.05
2019-04-04T05:31:25.392Z,988.05
2019-04-04T05:32:25.424Z,987.98
2019-04-04T05:33:27.305Z,988.02
2019-04-04T05:34:25.333Z,988.05
2019-04-04T05:35:25.251Z,988.03
2019-04-04T05:36:25.252Z,988.09
2019-04-04T05:37:27.506Z,988.10
2019-04-04T05:38:25.155Z,988.00
2019-04-04T05:39:25.149Z,987.98
2019-04-04T05:40:25.097Z,988.00
2019-04-04T05:41:37.335Z,988.08
2019-04-04T05:42:25.132Z,988.04
2019-04-04T05:43:25.075Z,988.05
2019-04-04T05:44:24.995Z,988.03
2019-04-04T05:45:24.973Z,988.06
2019-04-04T05:46:24.974Z,988.04
2019-04-04T05:47:24.938Z,988.05
2019-04-04T05:48:24.886Z,988.07
2019-04-04T05:49:24.858Z,988.10
2019-04-04T05:50:24.824Z,988.04
2019-04-04T05:51:24.834Z,988.14
2019-04-04T05:52:24.784Z,988.05
2019-04-04T05:53:24.762Z,988.11
2019-04-04T05:54:34.758Z,988.04
2019-04-04T05:55:24.728Z,988.02
2019-04-04T05:56:24.688Z,988.03
2019-04-04T05:57:24.640Z,988.12
2019-04-04T05:58:24.612Z,988.17
2019-04-04T05:59:24.573Z,988.13
2019-04-04T06:00:26.927Z,988.12
2019-04-04T06:01:24.525Z,988.12
2019-04-04T06:02:24.492Z,988.15
2019-04-04T06:03:24.453Z,988.17
2019-04-04T06:04:24.411Z,988.19
2019-04-04T06:05:26.991Z,988.15
2019-04-04T06:06:24.354Z,988.15
2019-04-04T06:07:36.330Z,988.10
2019-04-04T06:08:24.324Z,988.07
2019-04-04T06:09:24.318Z,988.00
2019-04-04T06:10:24.237Z,987.97
2019-04-04T06:11:24.202Z,987.99
2019-04-04T06:12:25.114Z,988.05
2019-04-04T06:13:26.714Z,988.05
2019-04-04T06:14:24.126Z,988.07
2019-04-04T06:15:24.082Z,988.08
2019-04-04T06:16:24.049Z,988.14
2019-04-04T06:17:26.909Z,988.21
2019-04-04T06:18:23.996Z,988.18
2019-04-04T06:19:23.960Z,988.25
2019-04-04T06:20:33.954Z,988.18
2019-04-04T06:21:23.932Z,988.19
2019-04-04T06:22:23.906Z,988.17
2019-04-04T06:23:25.077Z,988.29
2019-04-04T06:24:25.150Z,988.28
2019-04-04T06:25:23.793Z,988.18
2019-04-04T06:26:23.753Z,988.17
2019-04-04T06:27:23.739Z,988.21
2019-04-04T06:28:23.682Z,988.17
2019-04-04T06:29:23.657Z,988.22
2019-04-04T06:30:23.630Z,988.19
2019-04-04T06:31:33.619Z,988.28
2019-04-04T06:32:23.563Z,988.31
2019-04-04T06:33:23.546Z,988.30
2019-04-04T06:34:24.147Z,988.35
2019-04-04T06:35:23.459Z,988.27
2019-04-04T06:36:23.426Z,988.25
2019-04-04T06:37:23.403Z,988.19
2019-04-04T06:38:24.164Z,988.17
2019-04-04T06:39:25.164Z,988.15
2019-04-04T06:40:23.291Z,988.16
2019-04-04T06:41:23.260Z,988.05
2019-04-04T06:42:36.012Z,988.06
2019-04-04T06:43:23.203Z,987.94
2019-04-04T06:44:23.158Z,988.00
2019-04-04T06:45:23.124Z,988.08
2019-04-04T06:46:23.101Z,988.03
2019-04-04T06:47:25.272Z,988.11
2019-04-04T06:48:23.050Z,988.12
2019-04-04T06:49:23.003Z,988.09
2019-04-04T06:50:22.974Z,988.13
2019-04-04T06:51:22.938Z,988.08
2019-04-04T06:52:23.519Z,988.02
2019-04-04T06:53:32.934Z,988.04
2019-04-04T06:54:25.133Z,988.09
2019-04-04T06:55:22.815Z,988.13
2019-04-04T06:56:22.775Z,988.12
2019-04-04T06:57:22.742Z,988.12
2019-04-04T06:58:22.719Z,988.08
2019-04-04T06:59:22.674Z,988.11
2019-04-04T07:00:22.638Z,988.23
2019-04-04T07:01:25.278Z,988.18
2019-04-04T07:02:24.002Z,988.15
2019-04-04T07:03:22.573Z,988.23
2019-04-04T07:04:35.807Z,988.27
2019-04-04T07:05:22.517Z,988.23
2019-04-04T07:06:22.489Z,988.19
2019-04-04T07:07:22.435Z,988.21
2019-04-04T07:08:22.412Z,988.12
2019-04-04T07:09:22.395Z,988.10
2019-04-04T07:10:22.383Z,988.11
2019-04-04T07:11:22.332Z,988.20
2019-04-04T07:12:28.124Z,988.26
2019-04-04T07:13:27.061Z,988.27
2019-04-04T07:14:22.232Z,988.33
2019-04-04T07:15:22.207Z,988.34
2019-04-04T07:16:22.155Z,988.30
2019-04-04T07:17:32.169Z,988.37
2019-04-04T07:18:22.104Z,988.34
2019-04-04T07:19:22.066Z,988.28
2019-04-04T07:20:22.038Z,988.30
2019-04-04T07:21:22.024Z,988.37
2019-04-04T07:22:24.608Z,988.41
2019-04-04T07:23:21.968Z,988.38
2019-04-04T07:24:21.915Z,988.36
2019-04-04T07:25:21.878Z,988.39
2019-04-04T07:26:21.849Z,988.46
2019-04-04T07:27:21.817Z,988.42
2019-04-04T07:28:31.820Z,988.43
2019-04-04T07:29:22.991Z,988.45
2019-04-04T07:30:21.730Z,988.60
2019-04-04T07:31:21.703Z,988.50
2019-04-04T07:32:21.669Z,988.60
2019-04-04T07:33:21.654Z,988.54
2019-04-04T07:34:21.602Z,988.55
2019-04-04T07:35:21.573Z,988.49
2019-04-04T07:36:21.534Z,988.60
2019-04-04T07:37:22.209Z,988.60
2019-04-04T07:38:21.477Z,988.66
2019-04-04T07:39:32.629Z,988.62
2019-04-04T07:40:21.391Z,988.64
2019-04-04T07:41:21.378Z,988.60
2019-04-04T07:42:21.319Z,988.63
2019-04-04T07:43:21.295Z,988.60
2019-04-04T07:44:23.383Z,988.54
2019-04-04T07:45:21.222Z,988.57
2019-04-04T07:46:21.187Z,988.60
2019-04-04T07:47:21.150Z,988.55
2019-04-04T07:48:21.139Z,988.58
2019-04-04T07:49:23.191Z,988.56
2019-04-04T07:50:31.065Z,988.59
2019-04-04T07:51:21.011Z,988.52
2019-04-04T07:52:20.976Z,988.50
2019-04-04T07:53:20.945Z,988.57
2019-04-04T07:54:20.912Z,988.49
2019-04-04T07:55:20.898Z,988.44
2019-04-04T07:56:20.848Z,988.47
2019-04-04T07:57:20.811Z,988.44
2019-04-04T07:58:20.789Z,988.44
2019-04-04T07:59:20.775Z,988.47
2019-04-04T08:00:20.720Z,988.39
2019-04-04T08:01:30.707Z,988.46
2019-04-04T08:02:20.682Z,988.46
2019-04-04T08:03:20.645Z,988.41
2019-04-04T08:04:20.590Z,988.37
2019-04-04T08:05:20.578Z,988.32
2019-04-04T08:06:20.548Z,988.44
2019-04-04T08:07:20.493Z,988.40
2019-04-04T08:08:20.465Z,988.44
2019-04-04T08:09:20.447Z,988.43
2019-04-04T08:10:21.184Z,988.40
2019-04-04T08:11:20.350Z,988.36
2019-04-04T08:12:20.312Z,988.36
2019-04-04T08:13:20.279Z,988.36
2019-04-04T08:14:30.291Z,988.39
2019-04-04T08:15:20.202Z,988.37
2019-04-04T08:16:20.164Z,988.34
2019-04-04T08:17:20.136Z,988.35
2019-04-04T08:18:20.090Z,988.28
2019-04-04T08:19:20.079Z,988.28
2019-04-04T08:20:20.031Z,988.27
2019-04-04T08:21:19.984Z,988.32
2019-04-04T08:22:20.074Z,988.31
2019-04-04T08:23:19.914Z,988.32
2019-04-04T08:24:19.889Z,988.32
2019-04-04T08:25:29.866Z,988.27
2019-04-04T08:26:19.820Z,988.30
2019-04-04T08:27:19.779Z,988.33
2019-04-04T08:28:19.755Z,988.32
2019-04-04T08:29:19.717Z,988.38
2019-04-04T08:30:19.673Z,988.42
2019-04-04T08:31:19.637Z,988.36
2019-04-04T08:32:19.618Z,988.40
2019-04-04T08:33:19.587Z,988.46
2019-04-04T08:34:19.568Z,988.49
2019-04-04T08:35:19.526Z,988.46
2019-04-04T08:36:29.503Z,988.47
2019-04-04T08:37:19.451Z,988.42
2019-04-04T08:38:19.395Z,988.38
2019-04-04T08:39:19.366Z,988.33
2019-04-04T08:40:19.327Z,988.25
2019-04-04T08:41:19.291Z,988.25
2019-04-04T08:42:19.254Z,988.20
2019-04-04T08:43:19.212Z,988.22
2019-04-04T08:44:19.195Z,988.12
2019-04-04T08:45:19.136Z,988.20
2019-04-04T08:46:20.103Z,988.22
2019-04-04T08:47:29.087Z,988.21
2019-04-04T08:48:19.039Z,988.29
2019-04-04T08:49:19.008Z,988.24
2019-04-04T08:50:18.981Z,988.31
2019-04-04T08:51:18.940Z,988.30
2019-04-04T08:52:20.790Z,988.33
2019-04-04T08:53:18.877Z,988.33
2019-04-04T08:54:18.815Z,988.35
2019-04-04T08:55:18.774Z,988.35
2019-04-04T08:56:18.737Z,988.34
2019-04-04T08:57:18.696Z,988.35
2019-04-04T08:58:28.676Z,988.45
2019-04-04T08:59:18.623Z,988.52
2019-04-04T09:00:18.595Z,988.58
2019-04-04T09:01:18.570Z,988.61
2019-04-04T09:02:18.533Z,988.65
2019-04-04T09:03:18.499Z,988.60
2019-04-04T09:04:18.454Z,988.57
2019-04-04T09:05:18.435Z,988.48
2019-04-04T09:06:18.396Z,988.47
2019-04-04T09:07:18.361Z,988.46
2019-04-04T09:08:18.316Z,988.41
2019-04-04T09:09:28.346Z,988.35
2019-04-04T09:10:18.253Z,988.33
2019-04-04T09:11:18.215Z,988.25
2019-04-04T09:12:18.175Z,988.23
2019-04-04T09:13:18.145Z,988.23
2019-04-04T09:14:18.106Z,988.18
2019-04-04T09:15:18.080Z,988.14
2019-04-04T09:16:18.019Z,988.17
2019-04-04T09:17:17.982Z,988.03
2019-04-04T09:18:17.943Z,987.96
2019-04-04T09:19:17.909Z,988.03
2019-04-04T09:20:27.911Z,988.01
2019-04-04T09:21:17.833Z,987.99
2019-04-04T09:22:17.826Z,987.97
2019-04-04T09:23:17.764Z,987.95
2019-04-04T09:24:17.738Z,987.97
2019-04-04T09:25:17.706Z,987.90
2019-04-04T09:26:17.668Z,987.85
2019-04-04T09:27:17.639Z,987.87
2019-04-04T09:28:17.608Z,987.85
2019-04-04T09:29:17.573Z,987.75
2019-04-04T09:30:17.554Z,987.80
2019-04-04T09:31:27.528Z,987.77
2019-04-04T09:32:17.494Z,987.83
2019-04-04T09:33:17.453Z,987.87
2019-04-04T09:34:17.410Z,988.01
2019-04-04T09:35:17.387Z,988.09
2019-04-04T09:36:17.337Z,988.12
2019-04-04T09:37:17.311Z,988.09
2019-04-04T09:38:17.265Z,988.11
2019-04-04T09:39:17.223Z,988.14
2019-04-04T09:40:17.195Z,988.14
2019-04-04T09:41:17.160Z,988.07
2019-04-04T09:42:27.138Z,988.05
2019-04-04T09:43:17.083Z,988.11
2019-04-04T09:44:17.056Z,988.15
2019-04-04T09:45:17.021Z,988.22
2019-04-04T09:46:17.008Z,988.28
2019-04-04T09:47:16.948Z,988.42
2019-04-04T09:48:16.909Z,988.44
2019-04-04T09:49:16.867Z,988.49
2019-04-04T09:50:17.274Z,988.51
2019-04-04T09:51:16.804Z,988.51
2019-04-04T09:52:16.782Z,988.51
2019-04-04T09:53:26.766Z,988.51
2019-04-04T09:54:19.213Z,988.50
2019-04-04T09:55:16.700Z,988.50
2019-04-04T09:56:16.680Z,988.52
2019-04-04T09:57:16.646Z,988.54
2019-04-04T09:58:16.697Z,988.67
2019-04-04T09:59:16.565Z,988.67
2019-04-04T10:09:57.301Z,988.78
2019-04-04T10:10:57.277Z,988.73
2019-04-04T10:11:57.196Z,988.77
2019-04-04T10:12:57.158Z,988.82
2019-04-04T10:13:57.206Z,988.74
2019-04-04T10:14:57.084Z,988.82
2019-04-04T10:15:57.025Z,988.77
2019-04-04T10:16:56.990Z,988.76
2019-04-04T10:17:56.934Z,988.77
2019-04-04T10:18:56.910Z,988.83
2019-04-04T10:19:56.840Z,988.82
2019-04-04T10:21:12.087Z,988.81
2019-04-04T10:21:57.755Z,988.81
2019-04-04T10:22:56.693Z,988.87
2019-04-04T10:23:56.647Z,988.86
2019-04-04T10:24:56.621Z,988.88
2019-04-04T10:25:56.536Z,988.91
2019-04-04T10:26:56.493Z,988.88
2019-04-04T10:27:56.448Z,988.87
2019-04-04T10:28:56.373Z,988.94
2019-04-04T10:29:56.317Z,988.95
2019-04-04T10:30:56.292Z,989.01
2019-04-04T10:32:06.239Z,989.02
2019-04-04T10:32:56.157Z,989.06
2019-04-04T10:33:56.101Z,989.04
2019-04-04T10:34:56.043Z,989.04
2019-04-04T10:35:56.000Z,989.03
2019-04-04T10:36:55.946Z,989.07
2019-04-04T10:37:55.896Z,989.06
2019-04-04T10:38:55.829Z,989.14
2019-04-04T10:39:55.770Z,989.05
2019-04-04T10:40:55.713Z,989.00
2019-04-04T10:41:55.656Z,989.02
2019-04-04T10:43:05.613Z,988.93
2019-04-04T10:43:55.532Z,988.90
2019-04-04T10:44:55.545Z,988.90
2019-04-04T10:45:55.488Z,988.90
2019-04-04T10:46:55.440Z,988.88
2019-04-04T10:47:55.370Z,988.91
2019-04-04T10:48:55.311Z,988.91
2019-04-04T10:49:55.274Z,988.92
2019-04-04T10:50:55.194Z,988.97
2019-04-04T10:51:55.147Z,988.96
2019-04-04T10:52:55.079Z,989.03
2019-04-04T10:54:05.029Z,988.99
2019-04-04T10:54:54.955Z,988.91
2019-04-04T10:55:54.904Z,988.97
2019-04-04T10:56:54.853Z,988.94
2019-04-04T10:57:54.773Z,988.92
2019-04-04T10:58:54.717Z,988.85
2019-04-04T10:59:54.938Z,988.92
2019-04-04T11:00:54.600Z,988.93
2019-04-04T11:01:54.565Z,988.95
2019-04-04T11:02:54.494Z,988.96
2019-04-04T11:03:54.434Z,988.89
2019-04-04T11:05:04.394Z,988.87
2019-04-04T11:05:54.322Z,988.91
2019-04-04T11:06:54.265Z,988.96
2019-04-04T11:07:56.668Z,988.94
2019-04-04T11:08:54.155Z,988.97
2019-04-04T11:09:54.092Z,988.91
2019-04-04T11:10:54.038Z,988.93
2019-04-04T11:11:53.975Z,988.97
2019-04-04T11:12:53.937Z,988.93
2019-04-04T11:13:53.869Z,988.88
2019-04-04T11:14:54.336Z,988.91
2019-04-04T11:16:03.784Z,988.86
2019-04-04T11:16:53.710Z,988.81
2019-04-04T11:17:53.657Z,988.82
2019-04-04T11:18:53.598Z,988.93
2019-04-04T11:19:53.538Z,988.91
2019-04-04T11:20:53.507Z,988.96
2019-04-04T11:21:53.450Z,988.91
2019-04-04T11:22:53.365Z,988.91
2019-04-04T11:23:53.308Z,988.92
2019-04-04T11:24:53.259Z,988.91
2019-04-04T11:25:53.194Z,988.90
2019-04-04T11:27:03.155Z,988.91
2019-04-04T11:27:53.092Z,988.92
2019-04-04T11:28:53.041Z,988.87
2019-04-04T11:29:52.978Z,988.87
2019-04-04T11:30:52.927Z,988.81
2019-04-04T11:31:52.870Z,988.87
2019-04-04T11:32:52.811Z,988.88
2019-04-04T11:33:52.753Z,988.93
2019-04-04T11:34:53.671Z,988.87
2019-04-04T11:35:52.645Z,988.89
2019-04-04T11:36:52.590Z,988.87
2019-04-04T11:38:02.568Z,988.95
2019-04-04T11:38:52.493Z,988.93
2019-04-04T11:39:54.730Z,988.99
2019-04-04T11:40:52.385Z,989.02
2019-04-04T11:41:52.327Z,988.96
2019-04-04T11:42:52.270Z,988.99
2019-04-04T11:43:52.216Z,988.96
2019-04-04T11:44:52.212Z,988.93
2019-04-04T11:45:52.106Z,988.98
2019-04-04T11:46:52.031Z,988.97
2019-04-04T11:47:51.993Z,989.01
2019-04-04T11:49:01.930Z,989.09
2019-04-04T11:49:51.856Z,989.17
2019-04-04T11:50:51.796Z,989.25
2019-04-04T11:51:51.735Z,989.31
2019-04-04T11:52:51.704Z,989.31
2019-04-04T11:53:51.626Z,989.37
2019-04-04T11:54:51.571Z,989.39
2019-04-04T11:55:51.511Z,989.36
2019-04-04T11:56:51.456Z,989.46
2019-04-04T11:57:51.399Z,989.40
2019-04-04T11:58:51.345Z,989.46
2019-04-04T12:00:01.306Z,989.52
2019-04-04T12:00:51.247Z,989.48
2019-04-04T12:01:51.181Z,989.49
2019-04-04T12:02:51.127Z,989.47
2019-04-04T12:03:51.078Z,989.45
2019-04-04T12:04:51.027Z,989.46
2019-04-04T12:05:50.984Z,989.45
2019-04-04T12:06:50.932Z,989.47
2019-04-04T12:07:50.886Z,989.46
2019-04-04T12:08:50.840Z,989.44
2019-04-04T12:09:50.785Z,989.53
2019-04-04T12:11:00.760Z,989.56
2019-04-04T12:11:50.684Z,989.50
2019-04-04T12:12:50.644Z,989.57
2019-04-04T12:13:50.730Z,989.57
2019-04-04T12:14:50.539Z,989.56
2019-04-04T12:15:50.485Z,989.56
2019-04-04T12:16:50.426Z,989.52
2019-04-04T12:17:50.373Z,989.59
2019-04-04T12:18:50.323Z,989.64
2019-04-04T12:19:50.270Z,989.58
2019-04-04T12:20:50.212Z,989.59
2019-04-04T12:22:00.175Z,989.58
2019-04-04T12:22:50.112Z,989.62
2019-04-04T12:23:51.598Z,989.56
2019-04-04T12:24:50.002Z,989.65
2019-04-04T12:25:49.939Z,989.67
2019-04-04T12:26:49.882Z,989.80
2019-04-04T12:27:49.903Z,989.91
2019-04-04T12:28:49.841Z,989.91
2019-04-04T12:55:20.016Z,990.24
2019-04-04T12:56:19.954Z,990.19
2019-04-04T12:57:19.935Z,990.14
2019-04-04T12:58:19.952Z,990.11
2019-04-04T12:59:19.944Z,990.13
2019-04-04T13:00:19.869Z,990.10
2019-04-04T13:01:21.261Z,990.07
2019-04-04T13:02:19.766Z,990.08
2019-04-04T13:03:22.278Z,990.06